sensor_id;sensor_type;location;lat;lon;timestamp;P1;durP1;ratioP1;P2;durP2;ratioP2
58384;SDS011;44185;47.844;8.966;2023-08-06T00:02:22;5.90;;;3.63;;
58384;SDS011;44185;47.844;8.966;2023-08-06T00:04:49;5.65;;;3.78;;
58384;SDS011;44185;47.844;8.966;2023-08-06T00:07:14;6.13;;;3.63;;
58384;SDS011;44185;47.844;8.966;2023-08-06T00:09:43;6.83;;;3.97;;
58384;SDS011;44185;47.844;8.966;2023-08-06T00:12:08;5.93;;;3.70;;
58384;SDS011;44185;47.844;8.966;2023-08-06T00:14:34;4.82;;;3.67;;
58384;SDS011;44185;47.844;8.966;2023-08-06T00:16:59;6.35;;;3.67;;
58384;SDS011;44185;47.844;8.966;2023-08-06T00:19:25;6.53;;;3.85;;
58384;SDS011;44185;47.844;8.966;2023-08-06T00:21:52;5.18;;;3.53;;
58384;SDS011;44185;47.844;8.966;2023-08-06T00:24:18;4.95;;;3.47;;
58384;SDS011;44185;47.844;8.966;2023-08-06T00:26:43;7.45;;;3.38;;
58384;SDS011;44185;47.844;8.966;2023-08-06T00:29:09;5.65;;;3.50;;
58384;SDS011;44185;47.844;8.966;2023-08-06T00:31:35;6.10;;;3.42;;
58384;SDS011;44185;47.844;8.966;2023-08-06T00:34:00;7.10;;;3.67;;
58384;SDS011;44185;47.844;8.966;2023-08-06T00:36:26;7.38;;;4.10;;
58384;SDS011;44185;47.844;8.966;2023-08-06T00:38:52;6.18;;;4.22;;
58384;SDS011;44185;47.844;8.966;2023-08-06T00:41:18;5.40;;;3.33;;
58384;SDS011;44185;47.844;8.966;2023-08-06T00:43:43;4.97;;;3.40;;
58384;SDS011;44185;47.844;8.966;2023-08-06T00:46:09;8.68;;;4.00;;
58384;SDS011;44185;47.844;8.966;2023-08-06T00:48:35;7.93;;;3.42;;
58384;SDS011;44185;47.844;8.966;2023-08-06T00:51:01;5.43;;;3.30;;
58384;SDS011;44185;47.844;8.966;2023-08-06T00:53:26;3.95;;;2.92;;
58384;SDS011;44185;47.844;8.966;2023-08-06T00:55:53;5.53;;;3.15;;
58384;SDS011;44185;47.844;8.966;2023-08-06T00:58:19;6.55;;;3.60;;
58384;SDS011;44185;47.844;8.966;2023-08-06T01:00:45;3.70;;;3.10;;
58384;SDS011;44185;47.844;8.966;2023-08-06T01:03:10;5.65;;;3.13;;
58384;SDS011;44185;47.844;8.966;2023-08-06T01:05:36;5.20;;;3.50;;
58384;SDS011;44185;47.844;8.966;2023-08-06T01:08:05;7.18;;;3.13;;
58384;SDS011;44185;47.844;8.966;2023-08-06T01:10:51;3.88;;;2.90;;
58384;SDS011;44185;47.844;8.966;2023-08-06T01:13:28;4.70;;;3.30;;
58384;SDS011;44185;47.844;8.966;2023-08-06T01:16:03;3.60;;;2.70;;
58384;SDS011;44185;47.844;8.966;2023-08-06T01:18:29;3.30;;;2.85;;
58384;SDS011;44185;47.844;8.966;2023-08-06T01:20:56;4.00;;;2.67;;
58384;SDS011;44185;47.844;8.966;2023-08-06T01:23:22;6.68;;;3.10;;
58384;SDS011;44185;47.844;8.966;2023-08-06T01:25:49;5.22;;;3.20;;
58384;SDS011;44185;47.844;8.966;2023-08-06T01:28:27;5.90;;;3.38;;
58384;SDS011;44185;47.844;8.966;2023-08-06T01:31:02;5.25;;;3.30;;
58384;SDS011;44185;47.844;8.966;2023-08-06T01:33:34;2.85;;;2.55;;
58384;SDS011;44185;47.844;8.966;2023-08-06T01:36:03;4.97;;;3.25;;
58384;SDS011;44185;47.844;8.966;2023-08-06T01:38:30;3.87;;;3.03;;
58384;SDS011;44185;47.844;8.966;2023-08-06T01:40:56;4.25;;;3.28;;
58384;SDS011;44185;47.844;8.966;2023-08-06T01:43:21;4.43;;;3.05;;
58384;SDS011;44185;47.844;8.966;2023-08-06T01:45:47;4.20;;;2.53;;
58384;SDS011;44185;47.844;8.966;2023-08-06T01:48:13;5.47;;;3.22;;
58384;SDS011;44185;47.844;8.966;2023-08-06T01:50:38;3.33;;;2.70;;
58384;SDS011;44185;47.844;8.966;2023-08-06T01:53:05;6.10;;;2.70;;
58384;SDS011;44185;47.844;8.966;2023-08-06T01:55:31;5.53;;;2.88;;
58384;SDS011;44185;47.844;8.966;2023-08-06T01:57:56;8.10;;;3.10;;
58384;SDS011;44185;47.844;8.966;2023-08-06T02:00:25;6.00;;;3.15;;
58384;SDS011;44185;47.844;8.966;2023-08-06T02:02:50;5.18;;;3.10;;
58384;SDS011;44185;47.844;8.966;2023-08-06T02:05:16;4.43;;;2.92;;
58384;SDS011;44185;47.844;8.966;2023-08-06T02:07:41;4.03;;;2.80;;
58384;SDS011;44185;47.844;8.966;2023-08-06T02:10:08;5.57;;;3.22;;
58384;SDS011;44185;47.844;8.966;2023-08-06T02:12:34;6.30;;;3.67;;
58384;SDS011;44185;47.844;8.966;2023-08-06T02:15:02;4.85;;;2.85;;
58384;SDS011;44185;47.844;8.966;2023-08-06T02:17:28;4.22;;;2.95;;
58384;SDS011;44185;47.844;8.966;2023-08-06T02:19:53;5.05;;;2.60;;
58384;SDS011;44185;47.844;8.966;2023-08-06T02:22:19;5.13;;;2.95;;
58384;SDS011;44185;47.844;8.966;2023-08-06T02:24:44;6.85;;;3.28;;
58384;SDS011;44185;47.844;8.966;2023-08-06T02:27:11;5.95;;;3.33;;
58384;SDS011;44185;47.844;8.966;2023-08-06T02:29:36;5.60;;;3.35;;
58384;SDS011;44185;47.844;8.966;2023-08-06T02:32:02;5.53;;;3.03;;
58384;SDS011;44185;47.844;8.966;2023-08-06T02:34:28;5.50;;;3.00;;
58384;SDS011;44185;47.844;8.966;2023-08-06T02:36:53;6.32;;;3.28;;
58384;SDS011;44185;47.844;8.966;2023-08-06T02:39:22;7.82;;;3.20;;
58384;SDS011;44185;47.844;8.966;2023-08-06T02:41:47;6.22;;;2.85;;
58384;SDS011;44185;47.844;8.966;2023-08-06T02:44:14;5.70;;;3.33;;
58384;SDS011;44185;47.844;8.966;2023-08-06T02:46:44;4.82;;;3.08;;
58384;SDS011;44185;47.844;8.966;2023-08-06T02:49:11;6.35;;;3.28;;
58384;SDS011;44185;47.844;8.966;2023-08-06T02:51:37;5.13;;;2.83;;
58384;SDS011;44185;47.844;8.966;2023-08-06T02:54:14;4.70;;;2.95;;
58384;SDS011;44185;47.844;8.966;2023-08-06T02:56:42;3.15;;;2.80;;
58384;SDS011;44185;47.844;8.966;2023-08-06T02:59:08;6.73;;;3.23;;
58384;SDS011;44185;47.844;8.966;2023-08-06T03:01:35;4.72;;;2.80;;
58384;SDS011;44185;47.844;8.966;2023-08-06T03:04:00;6.43;;;3.00;;
58384;SDS011;44185;47.844;8.966;2023-08-06T03:06:29;4.57;;;2.80;;
58384;SDS011;44185;47.844;8.966;2023-08-06T03:08:58;4.32;;;2.95;;
58384;SDS011;44185;47.844;8.966;2023-08-06T03:11:23;5.47;;;2.92;;
58384;SDS011;44185;47.844;8.966;2023-08-06T03:13:49;4.82;;;3.33;;
58384;SDS011;44185;47.844;8.966;2023-08-06T03:16:16;4.60;;;2.88;;
58384;SDS011;44185;47.844;8.966;2023-08-06T03:18:46;4.35;;;3.13;;
58384;SDS011;44185;47.844;8.966;2023-08-06T03:21:13;4.47;;;2.80;;
58384;SDS011;44185;47.844;8.966;2023-08-06T03:23:39;2.95;;;2.70;;
58384;SDS011;44185;47.844;8.966;2023-08-06T03:26:04;4.53;;;3.05;;
58384;SDS011;44185;47.844;8.966;2023-08-06T03:28:32;5.07;;;2.80;;
58384;SDS011;44185;47.844;8.966;2023-08-06T03:31:01;3.45;;;2.75;;
58384;SDS011;44185;47.844;8.966;2023-08-06T03:33:28;4.85;;;2.60;;
58384;SDS011;44185;47.844;8.966;2023-08-06T03:35:55;4.55;;;2.75;;
58384;SDS011;44185;47.844;8.966;2023-08-06T03:38:24;4.40;;;2.42;;
58384;SDS011;44185;47.844;8.966;2023-08-06T03:40:49;4.10;;;2.75;;
58384;SDS011;44185;47.844;8.966;2023-08-06T03:43:15;5.30;;;2.80;;
58384;SDS011;44185;47.844;8.966;2023-08-06T03:45:41;3.63;;;2.60;;
58384;SDS011;44185;47.844;8.966;2023-08-06T03:48:06;3.38;;;2.60;;
58384;SDS011;44185;47.844;8.966;2023-08-06T03:50:32;5.15;;;2.40;;
58384;SDS011;44185;47.844;8.966;2023-08-06T03:53:01;5.22;;;2.20;;
58384;SDS011;44185;47.844;8.966;2023-08-06T03:55:27;5.05;;;2.42;;
58384;SDS011;44185;47.844;8.966;2023-08-06T03:57:52;3.47;;;2.55;;
58384;SDS011;44185;47.844;8.966;2023-08-06T04:00:18;7.82;;;3.03;;
58384;SDS011;44185;47.844;8.966;2023-08-06T04:02:44;6.40;;;2.90;;
58384;SDS011;44185;47.844;8.966;2023-08-06T04:05:09;3.13;;;2.53;;
58384;SDS011;44185;47.844;8.966;2023-08-06T04:07:34;4.45;;;2.65;;
58384;SDS011;44185;47.844;8.966;2023-08-06T04:10:02;3.15;;;2.47;;
58384;SDS011;44185;47.844;8.966;2023-08-06T04:12:30;4.27;;;2.33;;
58384;SDS011;44185;47.844;8.966;2023-08-06T04:14:57;4.15;;;2.50;;
58384;SDS011;44185;47.844;8.966;2023-08-06T04:17:23;4.45;;;2.33;;
58384;SDS011;44185;47.844;8.966;2023-08-06T04:19:49;5.68;;;2.50;;
58384;SDS011;44185;47.844;8.966;2023-08-06T04:22:16;4.88;;;2.55;;
58384;SDS011;44185;47.844;8.966;2023-08-06T04:24:42;4.18;;;2.75;;
58384;SDS011;44185;47.844;8.966;2023-08-06T04:27:09;4.38;;;2.42;;
58384;SDS011;44185;47.844;8.966;2023-08-06T04:29:35;4.15;;;2.53;;
58384;SDS011;44185;47.844;8.966;2023-08-06T04:32:00;5.07;;;2.50;;
58384;SDS011;44185;47.844;8.966;2023-08-06T04:34:26;4.30;;;2.45;;
58384;SDS011;44185;47.844;8.966;2023-08-06T04:36:51;3.83;;;2.40;;
58384;SDS011;44185;47.844;8.966;2023-08-06T04:39:19;4.00;;;2.55;;
58384;SDS011;44185;47.844;8.966;2023-08-06T04:41:44;4.25;;;2.28;;
58384;SDS011;44185;47.844;8.966;2023-08-06T04:44:11;4.13;;;2.47;;
58384;SDS011;44185;47.844;8.966;2023-08-06T04:46:36;3.63;;;2.40;;
58384;SDS011;44185;47.844;8.966;2023-08-06T04:49:02;2.45;;;2.25;;
58384;SDS011;44185;47.844;8.966;2023-08-06T04:51:28;3.50;;;2.22;;
58384;SDS011;44185;47.844;8.966;2023-08-06T04:53:56;4.22;;;2.40;;
58384;SDS011;44185;47.844;8.966;2023-08-06T04:56:22;3.38;;;2.55;;
58384;SDS011;44185;47.844;8.966;2023-08-06T04:58:50;3.60;;;2.50;;
58384;SDS011;44185;47.844;8.966;2023-08-06T05:01:19;4.73;;;2.40;;
58384;SDS011;44185;47.844;8.966;2023-08-06T05:03:44;3.45;;;2.08;;
58384;SDS011;44185;47.844;8.966;2023-08-06T05:06:10;3.33;;;2.28;;
58384;SDS011;44185;47.844;8.966;2023-08-06T05:08:35;3.08;;;2.42;;
58384;SDS011;44185;47.844;8.966;2023-08-06T05:11:00;3.08;;;2.03;;
58384;SDS011;44185;47.844;8.966;2023-08-06T05:13:26;3.15;;;1.88;;
58384;SDS011;44185;47.844;8.966;2023-08-06T05:15:53;3.05;;;1.80;;
58384;SDS011;44185;47.844;8.966;2023-08-06T05:18:20;2.45;;;1.83;;
58384;SDS011;44185;47.844;8.966;2023-08-06T05:20:45;2.40;;;1.77;;
58384;SDS011;44185;47.844;8.966;2023-08-06T05:23:11;2.40;;;1.65;;
58384;SDS011;44185;47.844;8.966;2023-08-06T05:25:36;3.35;;;1.70;;
58384;SDS011;44185;47.844;8.966;2023-08-06T05:28:02;4.03;;;1.70;;
58384;SDS011;44185;47.844;8.966;2023-08-06T05:30:28;2.75;;;1.20;;
58384;SDS011;44185;47.844;8.966;2023-08-06T05:32:53;2.00;;;1.25;;
58384;SDS011;44185;47.844;8.966;2023-08-06T05:35:20;0.93;;;0.63;;
58384;SDS011;44185;47.844;8.966;2023-08-06T05:37:46;3.50;;;1.00;;
58384;SDS011;44185;47.844;8.966;2023-08-06T05:40:11;2.55;;;0.70;;
58384;SDS011;44185;47.844;8.966;2023-08-06T05:42:37;4.47;;;0.75;;
58384;SDS011;44185;47.844;8.966;2023-08-06T05:45:03;2.67;;;0.70;;
58384;SDS011;44185;47.844;8.966;2023-08-06T05:47:29;2.45;;;0.90;;
58384;SDS011;44185;47.844;8.966;2023-08-06T05:49:54;1.38;;;0.50;;
58384;SDS011;44185;47.844;8.966;2023-08-06T05:52:21;1.55;;;0.60;;
58384;SDS011;44185;47.844;8.966;2023-08-06T05:54:47;0.30;;;0.30;;
58384;SDS011;44185;47.844;8.966;2023-08-06T05:57:13;1.33;;;0.50;;
58384;SDS011;44185;47.844;8.966;2023-08-06T05:59:39;1.60;;;0.40;;
58384;SDS011;44185;47.844;8.966;2023-08-06T06:02:05;1.90;;;0.45;;
58384;SDS011;44185;47.844;8.966;2023-08-06T06:04:31;0.50;;;0.25;;
58384;SDS011;44185;47.844;8.966;2023-08-06T06:09:28;0.20;;;0.20;;
58384;SDS011;44185;47.844;8.966;2023-08-06T06:11:54;2.05;;;0.70;;
58384;SDS011;44185;47.844;8.966;2023-08-06T06:14:19;0.10;;;0.10;;
58384;SDS011;44185;47.844;8.966;2023-08-06T06:16:45;0.20;;;0.20;;
58384;SDS011;44185;47.844;8.966;2023-08-06T06:19:10;0.98;;;0.40;;
58384;SDS011;44185;47.844;8.966;2023-08-06T06:21:36;0.43;;;0.40;;
58384;SDS011;44185;47.844;8.966;2023-08-06T06:24:01;0.22;;;0.20;;
58384;SDS011;44185;47.844;8.966;2023-08-06T06:26:29;0.98;;;0.52;;
58384;SDS011;44185;47.844;8.966;2023-08-06T06:28:54;1.25;;;0.63;;
58384;SDS011;44185;47.844;8.966;2023-08-06T06:31:20;0.95;;;0.60;;
58384;SDS011;44185;47.844;8.966;2023-08-06T06:33:45;0.70;;;0.60;;
58384;SDS011;44185;47.844;8.966;2023-08-06T06:36:11;1.47;;;0.80;;
58384;SDS011;44185;47.844;8.966;2023-08-06T06:38:36;1.80;;;0.52;;
58384;SDS011;44185;47.844;8.966;2023-08-06T06:41:02;0.85;;;0.60;;
58384;SDS011;44185;47.844;8.966;2023-08-06T06:43:29;1.85;;;0.57;;
58384;SDS011;44185;47.844;8.966;2023-08-06T06:45:55;0.50;;;0.50;;
58384;SDS011;44185;47.844;8.966;2023-08-06T06:48:21;2.17;;;0.68;;
58384;SDS011;44185;47.844;8.966;2023-08-06T06:50:47;4.13;;;0.52;;
58384;SDS011;44185;47.844;8.966;2023-08-06T06:53:13;2.97;;;0.80;;
58384;SDS011;44185;47.844;8.966;2023-08-06T06:55:38;2.50;;;0.75;;
58384;SDS011;44185;47.844;8.966;2023-08-06T06:58:04;2.80;;;0.98;;
58384;SDS011;44185;47.844;8.966;2023-08-06T07:00:30;3.83;;;0.85;;
58384;SDS011;44185;47.844;8.966;2023-08-06T07:02:56;1.35;;;0.57;;
58384;SDS011;44185;47.844;8.966;2023-08-06T07:05:21;1.15;;;0.65;;
58384;SDS011;44185;47.844;8.966;2023-08-06T07:07:47;3.33;;;0.80;;
58384;SDS011;44185;47.844;8.966;2023-08-06T07:10:13;1.85;;;0.52;;
58384;SDS011;44185;47.844;8.966;2023-08-06T07:12:38;1.20;;;0.45;;
58384;SDS011;44185;47.844;8.966;2023-08-06T07:15:04;1.20;;;0.60;;
58384;SDS011;44185;47.844;8.966;2023-08-06T07:17:32;2.15;;;0.82;;
58384;SDS011;44185;47.844;8.966;2023-08-06T07:19:58;0.73;;;0.55;;
58384;SDS011;44185;47.844;8.966;2023-08-06T07:22:23;1.30;;;0.63;;
58384;SDS011;44185;47.844;8.966;2023-08-06T07:24:49;1.85;;;0.73;;
58384;SDS011;44185;47.844;8.966;2023-08-06T07:27:14;0.52;;;0.43;;
58384;SDS011;44185;47.844;8.966;2023-08-06T07:29:39;5.07;;;0.85;;
58384;SDS011;44185;47.844;8.966;2023-08-06T07:32:05;1.85;;;0.77;;
58384;SDS011;44185;47.844;8.966;2023-08-06T07:34:33;2.72;;;0.93;;
58384;SDS011;44185;47.844;8.966;2023-08-06T07:36:58;0.82;;;0.50;;
58384;SDS011;44185;47.844;8.966;2023-08-06T07:39:24;2.60;;;0.85;;
58384;SDS011;44185;47.844;8.966;2023-08-06T07:41:49;2.35;;;1.42;;
58384;SDS011;44185;47.844;8.966;2023-08-06T07:44:15;2.13;;;0.80;;
58384;SDS011;44185;47.844;8.966;2023-08-06T07:46:40;3.03;;;0.50;;
58384;SDS011;44185;47.844;8.966;2023-08-06T07:49:09;1.85;;;0.85;;
58384;SDS011;44185;47.844;8.966;2023-08-06T07:51:35;2.13;;;0.80;;
58384;SDS011;44185;47.844;8.966;2023-08-06T07:54:01;4.57;;;0.77;;
58384;SDS011;44185;47.844;8.966;2023-08-06T07:56:26;1.55;;;0.70;;
58384;SDS011;44185;47.844;8.966;2023-08-06T07:58:52;4.80;;;1.20;;
58384;SDS011;44185;47.844;8.966;2023-08-06T08:01:17;2.58;;;0.63;;
58384;SDS011;44185;47.844;8.966;2023-08-06T08:03:43;0.32;;;0.32;;
58384;SDS011;44185;47.844;8.966;2023-08-06T08:06:08;3.10;;;0.40;;
58384;SDS011;44185;47.844;8.966;2023-08-06T08:08:35;1.35;;;0.50;;
58384;SDS011;44185;47.844;8.966;2023-08-06T08:11:00;0.75;;;0.30;;
58384;SDS011;44185;47.844;8.966;2023-08-06T08:13:26;0.70;;;0.32;;
58384;SDS011;44185;47.844;8.966;2023-08-06T08:15:56;0.35;;;0.35;;
58384;SDS011;44185;47.844;8.966;2023-08-06T08:18:22;0.17;;;0.17;;
58384;SDS011;44185;47.844;8.966;2023-08-06T08:20:47;0.50;;;0.50;;
58384;SDS011;44185;47.844;8.966;2023-08-06T08:23:13;0.30;;;0.30;;
58384;SDS011;44185;47.844;8.966;2023-08-06T08:25:40;0.52;;;0.20;;
58384;SDS011;44185;47.844;8.966;2023-08-06T08:28:05;0.20;;;0.20;;
58384;SDS011;44185;47.844;8.966;2023-08-06T08:30:31;0.10;;;0.10;;
58384;SDS011;44185;47.844;8.966;2023-08-06T08:32:57;1.17;;;0.45;;
58384;SDS011;44185;47.844;8.966;2023-08-06T08:35:22;0.08;;;0.08;;
58384;SDS011;44185;47.844;8.966;2023-08-06T08:37:48;0.10;;;0.10;;
58384;SDS011;44185;47.844;8.966;2023-08-06T08:40:13;1.00;;;0.20;;
58384;SDS011;44185;47.844;8.966;2023-08-06T08:42:41;2.30;;;0.40;;
58384;SDS011;44185;47.844;8.966;2023-08-06T08:45:08;1.50;;;0.30;;
58384;SDS011;44185;47.844;8.966;2023-08-06T08:50:03;0.20;;;0.10;;
58384;SDS011;44185;47.844;8.966;2023-08-06T08:52:31;0.25;;;0.25;;
58384;SDS011;44185;47.844;8.966;2023-08-06T08:54:58;0.20;;;0.20;;
58384;SDS011;44185;47.844;8.966;2023-08-06T08:57:26;0.20;;;0.10;;
58384;SDS011;44185;47.844;8.966;2023-08-06T08:59:52;0.20;;;0.20;;
58384;SDS011;44185;47.844;8.966;2023-08-06T09:02:18;0.10;;;0.10;;
58384;SDS011;44185;47.844;8.966;2023-08-06T09:04:48;0.08;;;0.08;;
58384;SDS011;44185;47.844;8.966;2023-08-06T09:07:16;0.47;;;0.20;;
58384;SDS011;44185;47.844;8.966;2023-08-06T09:09:44;0.35;;;0.15;;
58384;SDS011;44185;47.844;8.966;2023-08-06T09:12:14;0.43;;;0.37;;
58384;SDS011;44185;47.844;8.966;2023-08-06T09:14:40;0.05;;;0.05;;
58384;SDS011;44185;47.844;8.966;2023-08-06T09:17:08;0.10;;;0.10;;
58384;SDS011;44185;47.844;8.966;2023-08-06T09:19:33;0.20;;;0.20;;
58384;SDS011;44185;47.844;8.966;2023-08-06T09:21:59;0.10;;;0.10;;
58384;SDS011;44185;47.844;8.966;2023-08-06T09:24:24;0.20;;;0.20;;
58384;SDS011;44185;47.844;8.966;2023-08-06T09:26:50;0.28;;;0.25;;
58384;SDS011;44185;47.844;8.966;2023-08-06T09:29:16;1.13;;;0.17;;
58384;SDS011;44185;47.844;8.966;2023-08-06T09:31:41;0.20;;;0.20;;
58384;SDS011;44185;47.844;8.966;2023-08-06T09:34:11;0.20;;;0.20;;
58384;SDS011;44185;47.844;8.966;2023-08-06T09:36:40;0.28;;;0.28;;
58384;SDS011;44185;47.844;8.966;2023-08-06T09:39:11;0.20;;;0.20;;
58384;SDS011;44185;47.844;8.966;2023-08-06T09:41:37;0.25;;;0.22;;
58384;SDS011;44185;47.844;8.966;2023-08-06T09:44:03;0.50;;;0.40;;
58384;SDS011;44185;47.844;8.966;2023-08-06T09:46:29;0.10;;;0.10;;
58384;SDS011;44185;47.844;8.966;2023-08-06T09:48:57;1.58;;;0.30;;
58384;SDS011;44185;47.844;8.966;2023-08-06T09:51:24;0.35;;;0.10;;
58384;SDS011;44185;47.844;8.966;2023-08-06T09:53:50;2.38;;;0.68;;
58384;SDS011;44185;47.844;8.966;2023-08-06T09:56:16;0.22;;;0.08;;
58384;SDS011;44185;47.844;8.966;2023-08-06T09:58:43;1.02;;;0.52;;
58384;SDS011;44185;47.844;8.966;2023-08-06T10:01:12;1.08;;;0.10;;
58384;SDS011;44185;47.844;8.966;2023-08-06T10:03:38;0.28;;;0.28;;
58384;SDS011;44185;47.844;8.966;2023-08-06T10:06:05;1.13;;;0.75;;
58384;SDS011;44185;47.844;8.966;2023-08-06T10:08:32;0.98;;;0.50;;
58384;SDS011;44185;47.844;8.966;2023-08-06T10:10:58;0.55;;;0.30;;
58384;SDS011;44185;47.844;8.966;2023-08-06T10:13:24;0.98;;;0.30;;
58384;SDS011;44185;47.844;8.966;2023-08-06T10:15:50;0.52;;;0.22;;
58384;SDS011;44185;47.844;8.966;2023-08-06T10:18:16;1.58;;;0.57;;
58384;SDS011;44185;47.844;8.966;2023-08-06T10:20:43;1.80;;;0.43;;
58384;SDS011;44185;47.844;8.966;2023-08-06T10:23:08;1.30;;;0.10;;
58384;SDS011;44185;47.844;8.966;2023-08-06T10:25:36;2.83;;;0.40;;
58384;SDS011;44185;47.844;8.966;2023-08-06T10:28:09;0.15;;;0.15;;
58384;SDS011;44185;47.844;8.966;2023-08-06T10:33:07;0.30;;;0.30;;
58384;SDS011;44185;47.844;8.966;2023-08-06T10:35:36;0.20;;;0.20;;
58384;SDS011;44185;47.844;8.966;2023-08-06T10:38:07;0.30;;;0.30;;
58384;SDS011;44185;47.844;8.966;2023-08-06T10:40:33;0.35;;;0.35;;
58384;SDS011;44185;47.844;8.966;2023-08-06T10:43:00;0.30;;;0.30;;
58384;SDS011;44185;47.844;8.966;2023-08-06T10:45:26;0.20;;;0.20;;
58384;SDS011;44185;47.844;8.966;2023-08-06T10:47:52;0.13;;;0.13;;
58384;SDS011;44185;47.844;8.966;2023-08-06T10:50:17;0.15;;;0.15;;
58384;SDS011;44185;47.844;8.966;2023-08-06T10:52:43;0.10;;;0.10;;
58384;SDS011;44185;47.844;8.966;2023-08-06T10:55:08;1.55;;;0.32;;
58384;SDS011;44185;47.844;8.966;2023-08-06T10:57:35;0.10;;;0.10;;
58384;SDS011;44185;47.844;8.966;2023-08-06T11:00:01;0.20;;;0.08;;
58384;SDS011;44185;47.844;8.966;2023-08-06T11:02:27;0.30;;;0.17;;
58384;SDS011;44185;47.844;8.966;2023-08-06T11:04:53;0.28;;;0.28;;
58384;SDS011;44185;47.844;8.966;2023-08-06T11:07:18;0.10;;;0.10;;
58384;SDS011;44185;47.844;8.966;2023-08-06T11:09:44;0.10;;;0.10;;
58384;SDS011;44185;47.844;8.966;2023-08-06T11:12:09;1.75;;;0.30;;
58384;SDS011;44185;47.844;8.966;2023-08-06T11:14:36;0.20;;;0.10;;
58384;SDS011;44185;47.844;8.966;2023-08-06T11:17:02;0.20;;;0.20;;
58384;SDS011;44185;47.844;8.966;2023-08-06T11:19:28;0.52;;;0.10;;
58384;SDS011;44185;47.844;8.966;2023-08-06T11:21:54;0.10;;;0.10;;
58384;SDS011;44185;47.844;8.966;2023-08-06T11:24:19;0.20;;;0.20;;
58384;SDS011;44185;47.844;8.966;2023-08-06T11:26:45;0.13;;;0.13;;
58384;SDS011;44185;47.844;8.966;2023-08-06T11:29:10;0.00;;;0.00;;
58384;SDS011;44185;47.844;8.966;2023-08-06T11:31:37;0.17;;;0.17;;
58384;SDS011;44185;47.844;8.966;2023-08-06T11:34:02;0.20;;;0.20;;
58384;SDS011;44185;47.844;8.966;2023-08-06T11:36:28;0.20;;;0.20;;
58384;SDS011;44185;47.844;8.966;2023-08-06T11:38:54;1.00;;;0.20;;
58384;SDS011;44185;47.844;8.966;2023-08-06T11:41:20;0.70;;;0.15;;
58384;SDS011;44185;47.844;8.966;2023-08-06T11:43:45;0.20;;;0.20;;
58384;SDS011;44185;47.844;8.966;2023-08-06T11:46:11;1.50;;;0.22;;
58384;SDS011;44185;47.844;8.966;2023-08-06T11:48:51;0.20;;;0.20;;
58384;SDS011;44185;47.844;8.966;2023-08-06T11:51:17;0.35;;;0.10;;
58384;SDS011;44185;47.844;8.966;2023-08-06T11:53:46;0.30;;;0.20;;
58384;SDS011;44185;47.844;8.966;2023-08-06T11:56:13;0.30;;;0.20;;
58384;SDS011;44185;47.844;8.966;2023-08-06T11:58:40;0.10;;;0.10;;
58384;SDS011;44185;47.844;8.966;2023-08-06T12:01:06;0.13;;;0.13;;
58384;SDS011;44185;47.844;8.966;2023-08-06T12:03:31;0.10;;;0.10;;
58384;SDS011;44185;47.844;8.966;2023-08-06T12:05:58;0.10;;;0.10;;
58384;SDS011;44185;47.844;8.966;2023-08-06T12:08:26;0.30;;;0.30;;
58384;SDS011;44185;47.844;8.966;2023-08-06T12:10:51;0.30;;;0.30;;
58384;SDS011;44185;47.844;8.966;2023-08-06T12:13:17;0.47;;;0.20;;
58384;SDS011;44185;47.844;8.966;2023-08-06T12:15:43;0.35;;;0.20;;
58384;SDS011;44185;47.844;8.966;2023-08-06T12:18:09;0.30;;;0.20;;
58384;SDS011;44185;47.844;8.966;2023-08-06T12:20:35;0.30;;;0.30;;
58384;SDS011;44185;47.844;8.966;2023-08-06T12:23:02;1.80;;;0.28;;
58384;SDS011;44185;47.844;8.966;2023-08-06T12:25:28;0.20;;;0.15;;
58384;SDS011;44185;47.844;8.966;2023-08-06T12:27:53;0.30;;;0.30;;
58384;SDS011;44185;47.844;8.966;2023-08-06T12:30:19;0.30;;;0.20;;
58384;SDS011;44185;47.844;8.966;2023-08-06T12:32:44;0.45;;;0.32;;
58384;SDS011;44185;47.844;8.966;2023-08-06T12:35:09;0.40;;;0.40;;
58384;SDS011;44185;47.844;8.966;2023-08-06T12:37:35;0.70;;;0.52;;
58384;SDS011;44185;47.844;8.966;2023-08-06T12:40:02;0.52;;;0.52;;
58384;SDS011;44185;47.844;8.966;2023-08-06T12:42:28;1.23;;;0.43;;
58384;SDS011;44185;47.844;8.966;2023-08-06T12:44:54;0.45;;;0.40;;
58384;SDS011;44185;47.844;8.966;2023-08-06T12:47:19;1.42;;;0.55;;
58384;SDS011;44185;47.844;8.966;2023-08-06T12:49:44;0.65;;;0.50;;
58384;SDS011;44185;47.844;8.966;2023-08-06T12:52:10;1.27;;;0.55;;
58384;SDS011;44185;47.844;8.966;2023-08-06T12:54:35;0.30;;;0.30;;
58384;SDS011;44185;47.844;8.966;2023-08-06T12:57:03;0.30;;;0.30;;
58384;SDS011;44185;47.844;8.966;2023-08-06T12:59:29;0.30;;;0.30;;
58384;SDS011;44185;47.844;8.966;2023-08-06T13:01:54;0.43;;;0.43;;
58384;SDS011;44185;47.844;8.966;2023-08-06T13:04:20;0.95;;;0.60;;
58384;SDS011;44185;47.844;8.966;2023-08-06T13:06:45;1.52;;;0.60;;
58384;SDS011;44185;47.844;8.966;2023-08-06T13:09:11;0.85;;;0.50;;
58384;SDS011;44185;47.844;8.966;2023-08-06T13:11:38;1.30;;;0.40;;
58384;SDS011;44185;47.844;8.966;2023-08-06T13:14:05;0.50;;;0.50;;
58384;SDS011;44185;47.844;8.966;2023-08-06T13:16:31;0.95;;;0.60;;
58384;SDS011;44185;47.844;8.966;2023-08-06T13:18:57;0.40;;;0.20;;
58384;SDS011;44185;47.844;8.966;2023-08-06T13:21:22;0.73;;;0.50;;
58384;SDS011;44185;47.844;8.966;2023-08-06T13:23:48;1.48;;;0.68;;
58384;SDS011;44185;47.844;8.966;2023-08-06T13:26:13;0.90;;;0.60;;
58384;SDS011;44185;47.844;8.966;2023-08-06T13:28:38;0.50;;;0.50;;
58384;SDS011;44185;47.844;8.966;2023-08-06T13:31:05;0.50;;;0.50;;
58384;SDS011;44185;47.844;8.966;2023-08-06T13:33:31;0.98;;;0.70;;
58384;SDS011;44185;47.844;8.966;2023-08-06T13:35:56;0.82;;;0.70;;
58384;SDS011;44185;47.844;8.966;2023-08-06T13:38:21;0.70;;;0.45;;
58384;SDS011;44185;47.844;8.966;2023-08-06T13:40:47;2.42;;;0.80;;
58384;SDS011;44185;47.844;8.966;2023-08-06T13:43:13;0.50;;;0.50;;
58384;SDS011;44185;47.844;8.966;2023-08-06T13:45:38;0.43;;;0.43;;
58384;SDS011;44185;47.844;8.966;2023-08-06T13:48:05;0.30;;;0.30;;
58384;SDS011;44185;47.844;8.966;2023-08-06T13:50:30;0.50;;;0.30;;
58384;SDS011;44185;47.844;8.966;2023-08-06T13:52:56;0.38;;;0.38;;
58384;SDS011;44185;47.844;8.966;2023-08-06T13:55:21;0.60;;;0.60;;
58384;SDS011;44185;47.844;8.966;2023-08-06T13:57:47;1.00;;;0.40;;
58384;SDS011;44185;47.844;8.966;2023-08-06T14:00:13;0.70;;;0.32;;
58384;SDS011;44185;47.844;8.966;2023-08-06T14:02:38;0.20;;;0.20;;
58384;SDS011;44185;47.844;8.966;2023-08-06T14:05:06;0.50;;;0.50;;
58384;SDS011;44185;47.844;8.966;2023-08-06T14:07:31;0.50;;;0.40;;
58384;SDS011;44185;47.844;8.966;2023-08-06T14:09:57;0.50;;;0.40;;
58384;SDS011;44185;47.844;8.966;2023-08-06T14:12:22;0.50;;;0.30;;
58384;SDS011;44185;47.844;8.966;2023-08-06T14:14:48;0.50;;;0.50;;
58384;SDS011;44185;47.844;8.966;2023-08-06T14:17:13;0.93;;;0.60;;
58384;SDS011;44185;47.844;8.966;2023-08-06T14:19:39;0.57;;;0.28;;
58384;SDS011;44185;47.844;8.966;2023-08-06T14:22:05;0.35;;;0.35;;
58384;SDS011;44185;47.844;8.966;2023-08-06T14:24:31;0.30;;;0.30;;
58384;SDS011;44185;47.844;8.966;2023-08-06T14:26:56;1.45;;;0.50;;
58384;SDS011;44185;47.844;8.966;2023-08-06T14:29:22;0.40;;;0.40;;
58384;SDS011;44185;47.844;8.966;2023-08-06T14:31:47;0.40;;;0.40;;
58384;SDS011;44185;47.844;8.966;2023-08-06T14:34:13;2.88;;;0.70;;
58384;SDS011;44185;47.844;8.966;2023-08-06T14:36:38;1.35;;;0.40;;
58384;SDS011;44185;47.844;8.966;2023-08-06T14:39:05;1.02;;;0.52;;
58384;SDS011;44185;47.844;8.966;2023-08-06T14:41:30;0.60;;;0.50;;
58384;SDS011;44185;47.844;8.966;2023-08-06T14:43:56;0.50;;;0.40;;
58384;SDS011;44185;47.844;8.966;2023-08-06T14:46:21;0.55;;;0.55;;
58384;SDS011;44185;47.844;8.966;2023-08-06T14:48:47;0.50;;;0.50;;
58384;SDS011;44185;47.844;8.966;2023-08-06T14:51:13;0.60;;;0.60;;